sensor_id;sensor_type;location;lat;lon;timestamp;P1;durP1;ratioP1;P2;durP2;ratioP2
29214;SDS011;16252;49.816;7.964;2023-08-06T00:01:10;1.40;;;1.30;;
29214;SDS011;16252;49.816;7.964;2023-08-06T00:03:35;2.60;;;1.63;;
29214;SDS011;16252;49.816;7.964;2023-08-06T00:06:01;1.30;;;1.20;;
29214;SDS011;16252;49.816;7.964;2023-08-06T00:08:26;2.00;;;1.50;;
29214;SDS011;16252;49.816;7.964;2023-08-06T00:10:52;1.88;;;1.50;;
29214;SDS011;16252;49.816;7.964;2023-08-06T00:13:17;1.38;;;1.15;;
29214;SDS011;16252;49.816;7.964;2023-08-06T00:15:42;1.95;;;1.40;;
29214;SDS011;16252;49.816;7.964;2023-08-06T00:18:07;2.13;;;1.42;;
29214;SDS011;16252;49.816;7.964;2023-08-06T00:20:33;3.15;;;1.80;;
29214;SDS011;16252;49.816;7.964;2023-08-06T00:22:58;1.90;;;1.38;;
29214;SDS011;16252;49.816;7.964;2023-08-06T00:25:23;1.55;;;1.45;;
29214;SDS011;16252;49.816;7.964;2023-08-06T00:27:49;1.70;;;1.20;;
29214;SDS011;16252;49.816;7.964;2023-08-06T00:30:14;1.70;;;1.50;;
29214;SDS011;16252;49.816;7.964;2023-08-06T00:32:39;2.03;;;1.65;;
29214;SDS011;16252;49.816;7.964;2023-08-06T00:35:05;1.90;;;1.42;;
29214;SDS011;16252;49.816;7.964;2023-08-06T00:37:30;1.90;;;1.45;;
29214;SDS011;16252;49.816;7.964;2023-08-06T00:39:55;3.10;;;1.60;;
29214;SDS011;16252;49.816;7.964;2023-08-06T00:42:21;2.17;;;1.55;;
29214;SDS011;16252;49.816;7.964;2023-08-06T00:44:47;2.38;;;1.40;;
29214;SDS011;16252;49.816;7.964;2023-08-06T00:47:12;1.48;;;1.30;;
29214;SDS011;16252;49.816;7.964;2023-08-06T00:49:38;2.33;;;1.40;;
29214;SDS011;16252;49.816;7.964;2023-08-06T00:52:04;3.20;;;1.20;;
29214;SDS011;16252;49.816;7.964;2023-08-06T00:54:31;2.75;;;1.52;;
29214;SDS011;16252;49.816;7.964;2023-08-06T00:56:57;1.38;;;1.23;;
29214;SDS011;16252;49.816;7.964;2023-08-06T00:59:24;1.77;;;1.35;;
29214;SDS011;16252;49.816;7.964;2023-08-06T01:01:50;2.05;;;1.45;;
29214;SDS011;16252;49.816;7.964;2023-08-06T01:04:16;3.13;;;1.55;;
29214;SDS011;16252;49.816;7.964;2023-08-06T01:06:48;1.55;;;1.30;;
29214;SDS011;16252;49.816;7.964;2023-08-06T01:12:05;1.85;;;1.55;;
29214;SDS011;16252;49.816;7.964;2023-08-06T01:14:44;2.15;;;1.42;;
29214;SDS011;16252;49.816;7.964;2023-08-06T01:17:15;1.67;;;1.50;;
29214;SDS011;16252;49.816;7.964;2023-08-06T01:19:41;1.90;;;1.50;;
29214;SDS011;16252;49.816;7.964;2023-08-06T01:22:06;3.05;;;1.40;;
29214;SDS011;16252;49.816;7.964;2023-08-06T01:24:31;1.92;;;1.40;;
29214;SDS011;16252;49.816;7.964;2023-08-06T01:27:08;1.65;;;1.35;;
29214;SDS011;16252;49.816;7.964;2023-08-06T01:29:44;3.63;;;1.45;;
29214;SDS011;16252;49.816;7.964;2023-08-06T01:32:13;1.85;;;1.30;;
29214;SDS011;16252;49.816;7.964;2023-08-06T01:34:41;2.33;;;1.40;;
29214;SDS011;16252;49.816;7.964;2023-08-06T01:37:09;1.73;;;1.40;;
29214;SDS011;16252;49.816;7.964;2023-08-06T01:39:36;2.05;;;1.42;;
29214;SDS011;16252;49.816;7.964;2023-08-06T01:42:01;1.40;;;1.30;;
29214;SDS011;16252;49.816;7.964;2023-08-06T01:44:26;1.90;;;1.30;;
29214;SDS011;16252;49.816;7.964;2023-08-06T01:46:52;1.88;;;1.58;;
29214;SDS011;16252;49.816;7.964;2023-08-06T01:49:17;1.40;;;1.20;;
29214;SDS011;16252;49.816;7.964;2023-08-06T01:51:42;2.30;;;1.45;;
29214;SDS011;16252;49.816;7.964;2023-08-06T01:54:08;2.35;;;1.40;;
29214;SDS011;16252;49.816;7.964;2023-08-06T01:56:33;2.28;;;1.60;;
29214;SDS011;16252;49.816;7.964;2023-08-06T01:58:58;2.03;;;1.15;;
29214;SDS011;16252;49.816;7.964;2023-08-06T02:01:23;1.42;;;1.17;;
29214;SDS011;16252;49.816;7.964;2023-08-06T02:03:49;2.17;;;1.30;;
29214;SDS011;16252;49.816;7.964;2023-08-06T02:06:14;1.70;;;1.45;;
29214;SDS011;16252;49.816;7.964;2023-08-06T02:08:39;1.40;;;1.08;;
29214;SDS011;16252;49.816;7.964;2023-08-06T02:11:05;2.25;;;1.30;;
29214;SDS011;16252;49.816;7.964;2023-08-06T02:13:30;1.83;;;1.20;;
29214;SDS011;16252;49.816;7.964;2023-08-06T02:15:55;2.05;;;1.50;;
29214;SDS011;16252;49.816;7.964;2023-08-06T02:18:20;2.60;;;1.10;;
29214;SDS011;16252;49.816;7.964;2023-08-06T02:20:56;1.50;;;1.17;;
29214;SDS011;16252;49.816;7.964;2023-08-06T02:23:22;1.45;;;1.25;;
29214;SDS011;16252;49.816;7.964;2023-08-06T02:25:48;4.47;;;1.13;;
29214;SDS011;16252;49.816;7.964;2023-08-06T02:28:13;1.23;;;1.00;;
29214;SDS011;16252;49.816;7.964;2023-08-06T02:30:38;2.40;;;1.30;;
29214;SDS011;16252;49.816;7.964;2023-08-06T02:33:03;2.08;;;1.23;;
29214;SDS011;16252;49.816;7.964;2023-08-06T02:35:28;2.35;;;1.63;;
29214;SDS011;16252;49.816;7.964;2023-08-06T02:37:54;2.28;;;1.35;;
29214;SDS011;16252;49.816;7.964;2023-08-06T02:40:19;1.67;;;1.27;;
29214;SDS011;16252;49.816;7.964;2023-08-06T02:42:44;1.65;;;1.23;;
29214;SDS011;16252;49.816;7.964;2023-08-06T02:45:09;1.70;;;1.23;;
29214;SDS011;16252;49.816;7.964;2023-08-06T02:47:35;1.95;;;1.23;;
29214;SDS011;16252;49.816;7.964;2023-08-06T02:50:00;1.83;;;1.10;;
29214;SDS011;16252;49.816;7.964;2023-08-06T02:52:25;1.77;;;1.35;;
29214;SDS011;16252;49.816;7.964;2023-08-06T02:54:50;2.33;;;1.30;;
29214;SDS011;16252;49.816;7.964;2023-08-06T02:57:16;2.75;;;1.38;;
29214;SDS011;16252;49.816;7.964;2023-08-06T02:59:41;1.77;;;1.20;;
29214;SDS011;16252;49.816;7.964;2023-08-06T03:02:07;1.73;;;1.40;;
29214;SDS011;16252;49.816;7.964;2023-08-06T03:04:32;3.65;;;1.20;;
29214;SDS011;16252;49.816;7.964;2023-08-06T03:06:57;1.35;;;1.00;;
29214;SDS011;16252;49.816;7.964;2023-08-06T03:09:22;1.27;;;1.00;;
29214;SDS011;16252;49.816;7.964;2023-08-06T03:11:48;2.35;;;1.00;;
29214;SDS011;16252;49.816;7.964;2023-08-06T03:14:13;1.08;;;0.90;;
29214;SDS011;16252;49.816;7.964;2023-08-06T03:16:38;2.42;;;1.33;;
29214;SDS011;16252;49.816;7.964;2023-08-06T03:19:03;1.83;;;1.27;;
29214;SDS011;16252;49.816;7.964;2023-08-06T03:21:29;1.85;;;1.00;;
29214;SDS011;16252;49.816;7.964;2023-08-06T03:23:54;1.50;;;1.00;;
29214;SDS011;16252;49.816;7.964;2023-08-06T03:26:19;2.60;;;1.00;;
29214;SDS011;16252;49.816;7.964;2023-08-06T03:28:44;1.48;;;1.00;;
29214;SDS011;16252;49.816;7.964;2023-08-06T03:31:10;2.10;;;1.13;;
29214;SDS011;16252;49.816;7.964;2023-08-06T03:33:35;2.25;;;1.10;;
29214;SDS011;16252;49.816;7.964;2023-08-06T03:36:00;0.93;;;0.73;;
29214;SDS011;16252;49.816;7.964;2023-08-06T03:38:26;2.13;;;1.00;;
29214;SDS011;16252;49.816;7.964;2023-08-06T03:40:52;1.73;;;0.82;;
29214;SDS011;16252;49.816;7.964;2023-08-06T03:43:18;1.25;;;0.80;;
29214;SDS011;16252;49.816;7.964;2023-08-06T03:45:43;3.42;;;1.05;;
29214;SDS011;16252;49.816;7.964;2023-08-06T03:48:08;0.88;;;0.70;;
29214;SDS011;16252;49.816;7.964;2023-08-06T03:50:34;2.25;;;0.70;;
29214;SDS011;16252;49.816;7.964;2023-08-06T03:52:59;1.38;;;0.80;;
29214;SDS011;16252;49.816;7.964;2023-08-06T03:55:24;1.65;;;0.73;;
29214;SDS011;16252;49.816;7.964;2023-08-06T03:57:50;1.48;;;0.80;;
29214;SDS011;16252;49.816;7.964;2023-08-06T04:00:15;1.63;;;0.90;;
29214;SDS011;16252;49.816;7.964;2023-08-06T04:02:40;1.73;;;0.63;;
29214;SDS011;16252;49.816;7.964;2023-08-06T04:05:06;0.70;;;0.60;;
29214;SDS011;16252;49.816;7.964;2023-08-06T04:07:31;2.10;;;0.90;;
29214;SDS011;16252;49.816;7.964;2023-08-06T04:09:58;2.40;;;0.80;;
29214;SDS011;16252;49.816;7.964;2023-08-06T04:12:24;1.30;;;0.63;;
29214;SDS011;16252;49.816;7.964;2023-08-06T04:14:50;1.50;;;0.80;;
29214;SDS011;16252;49.816;7.964;2023-08-06T04:17:18;0.75;;;0.75;;
29214;SDS011;16252;49.816;7.964;2023-08-06T04:19:48;0.82;;;0.52;;
29214;SDS011;16252;49.816;7.964;2023-08-06T04:22:15;0.60;;;0.50;;
29214;SDS011;16252;49.816;7.964;2023-08-06T04:24:41;0.40;;;0.40;;
29214;SDS011;16252;49.816;7.964;2023-08-06T04:27:07;2.25;;;0.60;;
29214;SDS011;16252;49.816;7.964;2023-08-06T04:29:33;1.25;;;0.50;;
29214;SDS011;16252;49.816;7.964;2023-08-06T04:31:58;0.63;;;0.50;;
29214;SDS011;16252;49.816;7.964;2023-08-06T04:34:24;1.85;;;0.50;;
29214;SDS011;16252;49.816;7.964;2023-08-06T04:36:49;0.85;;;0.40;;
29214;SDS011;16252;49.816;7.964;2023-08-06T04:39:14;0.65;;;0.40;;
29214;SDS011;16252;49.816;7.964;2023-08-06T04:41:40;0.73;;;0.40;;
29214;SDS011;16252;49.816;7.964;2023-08-06T04:44:05;0.50;;;0.45;;
29214;SDS011;16252;49.816;7.964;2023-08-06T04:46:30;0.52;;;0.40;;
29214;SDS011;16252;49.816;7.964;2023-08-06T04:48:56;0.30;;;0.30;;
29214;SDS011;16252;49.816;7.964;2023-08-06T04:51:26;0.30;;;0.30;;
29214;SDS011;16252;49.816;7.964;2023-08-06T04:53:52;0.70;;;0.50;;
29214;SDS011;16252;49.816;7.964;2023-08-06T04:56:17;0.35;;;0.35;;
29214;SDS011;16252;49.816;7.964;2023-08-06T04:58:42;0.80;;;0.40;;
29214;SDS011;16252;49.816;7.964;2023-08-06T05:01:07;0.40;;;0.30;;
29214;SDS011;16252;49.816;7.964;2023-08-06T05:03:33;0.30;;;0.30;;
29214;SDS011;16252;49.816;7.964;2023-08-06T05:05:58;0.40;;;0.40;;
29214;SDS011;16252;49.816;7.964;2023-08-06T05:08:24;0.30;;;0.30;;
29214;SDS011;16252;49.816;7.964;2023-08-06T05:10:49;0.40;;;0.40;;
29214;SDS011;16252;49.816;7.964;2023-08-06T05:13:14;1.10;;;0.40;;
29214;SDS011;16252;49.816;7.964;2023-08-06T05:15:41;0.68;;;0.47;;
29214;SDS011;16252;49.816;7.964;2023-08-06T05:18:07;0.50;;;0.50;;
29214;SDS011;16252;49.816;7.964;2023-08-06T05:20:37;0.30;;;0.30;;
29214;SDS011;16252;49.816;7.964;2023-08-06T05:25:35;0.30;;;0.30;;
29214;SDS011;16252;49.816;7.964;2023-08-06T05:28:03;0.20;;;0.20;;
29214;SDS011;16252;49.816;7.964;2023-08-06T05:30:32;0.30;;;0.30;;
29214;SDS011;16252;49.816;7.964;2023-08-06T05:32:57;0.30;;;0.30;;
29214;SDS011;16252;49.816;7.964;2023-08-06T05:35:23;0.52;;;0.40;;
29214;SDS011;16252;49.816;7.964;2023-08-06T05:37:50;0.30;;;0.30;;
29214;SDS011;16252;49.816;7.964;2023-08-06T05:40:16;0.38;;;0.38;;
29214;SDS011;16252;49.816;7.964;2023-08-06T05:42:43;0.40;;;0.40;;
29214;SDS011;16252;49.816;7.964;2023-08-06T05:45:09;1.20;;;0.43;;
29214;SDS011;16252;49.816;7.964;2023-08-06T05:47:37;0.73;;;0.70;;
29214;SDS011;16252;49.816;7.964;2023-08-06T05:50:02;0.40;;;0.40;;
29214;SDS011;16252;49.816;7.964;2023-08-06T05:52:28;0.40;;;0.40;;
29214;SDS011;16252;49.816;7.964;2023-08-06T05:54:53;0.40;;;0.40;;
29214;SDS011;16252;49.816;7.964;2023-08-06T05:57:20;0.70;;;0.50;;
29214;SDS011;16252;49.816;7.964;2023-08-06T05:59:45;0.50;;;0.50;;
29214;SDS011;16252;49.816;7.964;2023-08-06T06:02:10;0.47;;;0.47;;
29214;SDS011;16252;49.816;7.964;2023-08-06T06:04:36;0.55;;;0.50;;
29214;SDS011;16252;49.816;7.964;2023-08-06T06:07:02;0.82;;;0.50;;
29214;SDS011;16252;49.816;7.964;2023-08-06T06:09:27;0.40;;;0.40;;
29214;SDS011;16252;49.816;7.964;2023-08-06T06:11:52;0.43;;;0.40;;
29214;SDS011;16252;49.816;7.964;2023-08-06T06:14:18;0.30;;;0.30;;
29214;SDS011;16252;49.816;7.964;2023-08-06T06:16:44;0.80;;;0.52;;
29214;SDS011;16252;49.816;7.964;2023-08-06T06:19:10;0.40;;;0.40;;
29214;SDS011;16252;49.816;7.964;2023-08-06T06:21:36;0.38;;;0.38;;
29214;SDS011;16252;49.816;7.964;2023-08-06T06:24:02;1.02;;;0.50;;
29214;SDS011;16252;49.816;7.964;2023-08-06T06:26:28;0.40;;;0.40;;
29214;SDS011;16252;49.816;7.964;2023-08-06T06:28:54;0.30;;;0.30;;
29214;SDS011;16252;49.816;7.964;2023-08-06T06:31:19;0.57;;;0.47;;
29214;SDS011;16252;49.816;7.964;2023-08-06T06:33:44;0.30;;;0.30;;
29214;SDS011;16252;49.816;7.964;2023-08-06T06:36:10;0.35;;;0.35;;
29214;SDS011;16252;49.816;7.964;2023-08-06T06:38:35;1.33;;;0.40;;
29214;SDS011;16252;49.816;7.964;2023-08-06T06:41:01;0.40;;;0.40;;
29214;SDS011;16252;49.816;7.964;2023-08-06T06:43:28;1.00;;;0.30;;
29214;SDS011;16252;49.816;7.964;2023-08-06T06:45:53;0.38;;;0.38;;
29214;SDS011;16252;49.816;7.964;2023-08-06T06:48:21;0.38;;;0.38;;
29214;SDS011;16252;49.816;7.964;2023-08-06T06:50:47;0.75;;;0.30;;
29214;SDS011;16252;49.816;7.964;2023-08-06T06:53:13;0.35;;;0.30;;
29214;SDS011;16252;49.816;7.964;2023-08-06T06:55:38;0.30;;;0.30;;
29214;SDS011;16252;49.816;7.964;2023-08-06T06:58:03;1.30;;;0.40;;
29214;SDS011;16252;49.816;7.964;2023-08-06T07:00:29;0.22;;;0.22;;
29214;SDS011;16252;49.816;7.964;2023-08-06T07:02:54;0.30;;;0.30;;
29214;SDS011;16252;49.816;7.964;2023-08-06T07:05:19;0.20;;;0.20;;
29214;SDS011;16252;49.816;7.964;2023-08-06T07:07:45;0.50;;;0.50;;
29214;SDS011;16252;49.816;7.964;2023-08-06T07:10:10;0.45;;;0.45;;
29214;SDS011;16252;49.816;7.964;2023-08-06T07:12:36;0.30;;;0.30;;
29214;SDS011;16252;49.816;7.964;2023-08-06T07:15:03;0.40;;;0.22;;
29214;SDS011;16252;49.816;7.964;2023-08-06T07:17:31;0.60;;;0.38;;
29214;SDS011;16252;49.816;7.964;2023-08-06T07:19:56;0.32;;;0.32;;
29214;SDS011;16252;49.816;7.964;2023-08-06T07:22:22;0.60;;;0.60;;
29214;SDS011;16252;49.816;7.964;2023-08-06T07:24:47;0.30;;;0.30;;
29214;SDS011;16252;49.816;7.964;2023-08-06T07:27:12;0.30;;;0.30;;
29214;SDS011;16252;49.816;7.964;2023-08-06T07:29:37;0.43;;;0.40;;
29214;SDS011;16252;49.816;7.964;2023-08-06T07:32:03;0.30;;;0.30;;
29214;SDS011;16252;49.816;7.964;2023-08-06T07:34:28;0.47;;;0.47;;
29214;SDS011;16252;49.816;7.964;2023-08-06T07:36:53;0.40;;;0.40;;
29214;SDS011;16252;49.816;7.964;2023-08-06T07:39:19;0.75;;;0.50;;
29214;SDS011;16252;49.816;7.964;2023-08-06T07:41:44;0.40;;;0.40;;
29214;SDS011;16252;49.816;7.964;2023-08-06T07:44:10;0.35;;;0.35;;
29214;SDS011;16252;49.816;7.964;2023-08-06T07:46:36;0.30;;;0.30;;
29214;SDS011;16252;49.816;7.964;2023-08-06T07:49:01;0.45;;;0.30;;
29214;SDS011;16252;49.816;7.964;2023-08-06T07:51:27;0.20;;;0.20;;
29214;SDS011;16252;49.816;7.964;2023-08-06T07:53:53;0.25;;;0.25;;
29214;SDS011;16252;49.816;7.964;2023-08-06T07:56:18;0.25;;;0.25;;
29214;SDS011;16252;49.816;7.964;2023-08-06T07:58:43;0.73;;;0.52;;
29214;SDS011;16252;49.816;7.964;2023-08-06T08:01:08;0.35;;;0.35;;
29214;SDS011;16252;49.816;7.964;2023-08-06T08:03:34;0.30;;;0.22;;
29214;SDS011;16252;49.816;7.964;2023-08-06T08:05:59;0.40;;;0.40;;
29214;SDS011;16252;49.816;7.964;2023-08-06T08:08:25;0.32;;;0.32;;
29214;SDS011;16252;49.816;7.964;2023-08-06T08:10:50;0.43;;;0.30;;
29214;SDS011;16252;49.816;7.964;2023-08-06T08:13:16;0.20;;;0.20;;
29214;SDS011;16252;49.816;7.964;2023-08-06T08:15:41;0.20;;;0.20;;
29214;SDS011;16252;49.816;7.964;2023-08-06T08:18:07;1.45;;;0.30;;
29214;SDS011;16252;49.816;7.964;2023-08-06T08:20:32;0.45;;;0.20;;
29214;SDS011;16252;49.816;7.964;2023-08-06T08:23:01;0.20;;;0.20;;
29214;SDS011;16252;49.816;7.964;2023-08-06T08:25:26;0.30;;;0.30;;
29214;SDS011;16252;49.816;7.964;2023-08-06T08:27:53;0.30;;;0.30;;
29214;SDS011;16252;49.816;7.964;2023-08-06T08:30:22;0.80;;;0.30;;
29214;SDS011;16252;49.816;7.964;2023-08-06T08:32:49;0.82;;;0.30;;
29214;SDS011;16252;49.816;7.964;2023-08-06T08:35:15;0.85;;;0.30;;
29214;SDS011;16252;49.816;7.964;2023-08-06T08:37:41;0.57;;;0.20;;
29214;SDS011;16252;49.816;7.964;2023-08-06T08:40:07;0.20;;;0.20;;
29214;SDS011;16252;49.816;7.964;2023-08-06T08:42:33;0.30;;;0.20;;
29214;SDS011;16252;49.816;7.964;2023-08-06T08:44:58;0.20;;;0.20;;
29214;SDS011;16252;49.816;7.964;2023-08-06T08:47:24;0.30;;;0.30;;
29214;SDS011;16252;49.816;7.964;2023-08-06T08:49:52;0.10;;;0.10;;
29214;SDS011;16252;49.816;7.964;2023-08-06T08:52:20;0.30;;;0.30;;
29214;SDS011;16252;49.816;7.964;2023-08-06T08:54:47;0.57;;;0.28;;
29214;SDS011;16252;49.816;7.964;2023-08-06T08:57:17;0.30;;;0.30;;
29214;SDS011;16252;49.816;7.964;2023-08-06T08:59:42;0.40;;;0.20;;
29214;SDS011;16252;49.816;7.964;2023-08-06T09:02:08;2.08;;;0.30;;
29214;SDS011;16252;49.816;7.964;2023-08-06T09:04:36;0.22;;;0.22;;
29214;SDS011;16252;49.816;7.964;2023-08-06T09:07:02;0.30;;;0.30;;
29214;SDS011;16252;49.816;7.964;2023-08-06T09:09:33;0.40;;;0.30;;
29214;SDS011;16252;49.816;7.964;2023-08-06T09:12:04;0.20;;;0.20;;
29214;SDS011;16252;49.816;7.964;2023-08-06T09:14:35;0.32;;;0.30;;
29214;SDS011;16252;49.816;7.964;2023-08-06T09:17:00;1.27;;;0.30;;
29214;SDS011;16252;49.816;7.964;2023-08-06T09:19:28;0.20;;;0.20;;
29214;SDS011;16252;49.816;7.964;2023-08-06T09:21:55;0.30;;;0.30;;
29214;SDS011;16252;49.816;7.964;2023-08-06T09:24:20;0.32;;;0.32;;
29214;SDS011;16252;49.816;7.964;2023-08-06T09:26:47;0.25;;;0.20;;
29214;SDS011;16252;49.816;7.964;2023-08-06T09:29:12;0.60;;;0.38;;
29214;SDS011;16252;49.816;7.964;2023-08-06T09:31:44;0.20;;;0.20;;
29214;SDS011;16252;49.816;7.964;2023-08-06T09:36:49;0.70;;;0.30;;
29214;SDS011;16252;49.816;7.964;2023-08-06T09:39:17;0.20;;;0.20;;
29214;SDS011;16252;49.816;7.964;2023-08-06T09:41:44;1.20;;;0.30;;
29214;SDS011;16252;49.816;7.964;2023-08-06T09:44:16;0.20;;;0.20;;
29214;SDS011;16252;49.816;7.964;2023-08-06T09:46:46;0.10;;;0.10;;
29214;SDS011;16252;49.816;7.964;2023-08-06T09:49:18;0.20;;;0.20;;
29214;SDS011;16252;49.816;7.964;2023-08-06T09:51:45;0.20;;;0.20;;
29214;SDS011;16252;49.816;7.964;2023-08-06T09:54:16;0.10;;;0.10;;
29214;SDS011;16252;49.816;7.964;2023-08-06T09:56:42;0.35;;;0.20;;
29214;SDS011;16252;49.816;7.964;2023-08-06T09:59:07;0.20;;;0.20;;
29214;SDS011;16252;49.816;7.964;2023-08-06T10:01:34;0.20;;;0.20;;
29214;SDS011;16252;49.816;7.964;2023-08-06T10:04:00;0.20;;;0.20;;
29214;SDS011;16252;49.816;7.964;2023-08-06T10:06:31;0.20;;;0.20;;
29214;SDS011;16252;49.816;7.964;2023-08-06T10:11:25;0.20;;;0.20;;
29214;SDS011;16252;49.816;7.964;2023-08-06T10:13:54;0.20;;;0.20;;
29214;SDS011;16252;49.816;7.964;2023-08-06T10:16:23;0.20;;;0.20;;
29214;SDS011;16252;49.816;7.964;2023-08-06T10:18:49;0.20;;;0.20;;
29214;SDS011;16252;49.816;7.964;2023-08-06T10:21:15;0.30;;;0.30;;
29214;SDS011;16252;49.816;7.964;2023-08-06T10:23:41;1.85;;;0.75;;
29214;SDS011;16252;49.816;7.964;2023-08-06T10:26:07;0.43;;;0.35;;
29214;SDS011;16252;49.816;7.964;2023-08-06T10:28:39;0.20;;;0.20;;
29214;SDS011;16252;49.816;7.964;2023-08-06T10:31:05;0.13;;;0.13;;
29214;SDS011;16252;49.816;7.964;2023-08-06T10:33:41;0.17;;;0.17;;
29214;SDS011;16252;49.816;7.964;2023-08-06T10:36:08;0.10;;;0.10;;
29214;SDS011;16252;49.816;7.964;2023-08-06T10:38:34;0.70;;;0.30;;
29214;SDS011;16252;49.816;7.964;2023-08-06T10:41:08;0.10;;;0.10;;
29214;SDS011;16252;49.816;7.964;2023-08-06T10:43:52;0.30;;;0.30;;
29214;SDS011;16252;49.816;7.964;2023-08-06T10:48:57;0.20;;;0.20;;
29214;SDS011;16252;49.816;7.964;2023-08-06T10:51:24;0.40;;;0.30;;
29214;SDS011;16252;49.816;7.964;2023-08-06T10:53:50;0.40;;;0.35;;
29214;SDS011;16252;49.816;7.964;2023-08-06T10:56:16;0.20;;;0.20;;
29214;SDS011;16252;49.816;7.964;2023-08-06T10:58:51;0.40;;;0.40;;
29214;SDS011;16252;49.816;7.964;2023-08-06T11:01:19;1.70;;;0.40;;
29214;SDS011;16252;49.816;7.964;2023-08-06T11:03:45;0.85;;;0.30;;
29214;SDS011;16252;49.816;7.964;2023-08-06T11:06:16;1.75;;;0.60;;
29214;SDS011;16252;49.816;7.964;2023-08-06T11:08:53;0.82;;;0.60;;
29214;SDS011;16252;49.816;7.964;2023-08-06T11:11:19;0.88;;;0.30;;
29214;SDS011;16252;49.816;7.964;2023-08-06T11:13:47;1.80;;;0.40;;
29214;SDS011;16252;49.816;7.964;2023-08-06T11:16:17;0.38;;;0.32;;
29214;SDS011;16252;49.816;7.964;2023-08-06T11:18:44;1.42;;;0.47;;
29214;SDS011;16252;49.816;7.964;2023-08-06T11:21:09;1.23;;;0.38;;
29214;SDS011;16252;49.816;7.964;2023-08-06T11:23:36;0.88;;;0.40;;
29214;SDS011;16252;49.816;7.964;2023-08-06T11:26:03;0.30;;;0.30;;
29214;SDS011;16252;49.816;7.964;2023-08-06T11:28:28;0.32;;;0.32;;
29214;SDS011;16252;49.816;7.964;2023-08-06T11:30:53;1.05;;;0.32;;
29214;SDS011;16252;49.816;7.964;2023-08-06T11:33:22;0.30;;;0.30;;
29214;SDS011;16252;49.816;7.964;2023-08-06T11:35:51;0.60;;;0.35;;
29214;SDS011;16252;49.816;7.964;2023-08-06T11:38:29;0.45;;;0.35;;
29214;SDS011;16252;49.816;7.964;2023-08-06T11:40:55;0.43;;;0.40;;
29214;SDS011;16252;49.816;7.964;2023-08-06T11:43:23;0.52;;;0.50;;
29214;SDS011;16252;49.816;7.964;2023-08-06T11:45:49;0.40;;;0.40;;
29214;SDS011;16252;49.816;7.964;2023-08-06T11:48:19;0.73;;;0.43;;
29214;SDS011;16252;49.816;7.964;2023-08-06T11:50:45;0.80;;;0.50;;
29214;SDS011;16252;49.816;7.964;2023-08-06T11:53:12;0.60;;;0.50;;
29214;SDS011;16252;49.816;7.964;2023-08-06T11:55:41;0.80;;;0.50;;
29214;SDS011;16252;49.816;7.964;2023-08-06T11:58:08;0.35;;;0.35;;
29214;SDS011;16252;49.816;7.964;2023-08-06T12:00:34;0.70;;;0.40;;
29214;SDS011;16252;49.816;7.964;2023-08-06T12:03:01;0.52;;;0.50;;
29214;SDS011;16252;49.816;7.964;2023-08-06T12:05:30;1.05;;;0.60;;
29214;SDS011;16252;49.816;7.964;2023-08-06T12:07:58;0.40;;;0.40;;
29214;SDS011;16252;49.816;7.964;2023-08-06T12:10:25;0.43;;;0.43;;
29214;SDS011;16252;49.816;7.964;2023-08-06T12:12:51;0.63;;;0.38;;
29214;SDS011;16252;49.816;7.964;2023-08-06T12:15:17;0.52;;;0.40;;
29214;SDS011;16252;49.816;7.964;2023-08-06T12:17:42;0.38;;;0.38;;
29214;SDS011;16252;49.816;7.964;2023-08-06T12:20:08;0.80;;;0.40;;
29214;SDS011;16252;49.816;7.964;2023-08-06T12:22:40;1.00;;;0.47;;
29214;SDS011;16252;49.816;7.964;2023-08-06T12:25:06;1.20;;;0.30;;
29214;SDS011;16252;49.816;7.964;2023-08-06T12:27:33;1.08;;;0.47;;
29214;SDS011;16252;49.816;7.964;2023-08-06T12:30:17;0.32;;;0.30;;
29214;SDS011;16252;49.816;7.964;2023-08-06T12:32:42;1.08;;;0.60;;
29214;SDS011;16252;49.816;7.964;2023-08-06T12:35:07;0.35;;;0.30;;
29214;SDS011;16252;49.816;7.964;2023-08-06T12:37:33;1.52;;;0.70;;
29214;SDS011;16252;49.816;7.964;2023-08-06T12:39:59;1.58;;;0.40;;
29214;SDS011;16252;49.816;7.964;2023-08-06T12:42:24;0.73;;;0.43;;
29214;SDS011;16252;49.816;7.964;2023-08-06T12:44:50;0.43;;;0.40;;
29214;SDS011;16252;49.816;7.964;2023-08-06T12:47:16;0.52;;;0.43;;
29214;SDS011;16252;49.816;7.964;2023-08-06T12:49:42;1.58;;;0.60;;
29214;SDS011;16252;49.816;7.964;2023-08-06T12:52:07;1.08;;;0.50;;
29214;SDS011;16252;49.816;7.964;2023-08-06T12:54:34;0.90;;;0.40;;
29214;SDS011;16252;49.816;7.964;2023-08-06T12:57:05;0.70;;;0.45;;
29214;SDS011;16252;49.816;7.964;2023-08-06T12:59:31;0.55;;;0.40;;
29214;SDS011;16252;49.816;7.964;2023-08-06T13:01:58;0.70;;;0.40;;
29214;SDS011;16252;49.816;7.964;2023-08-06T13:04:23;0.85;;;0.40;;
29214;SDS011;16252;49.816;7.964;2023-08-06T13:06:49;0.40;;;0.38;;
29214;SDS011;16252;49.816;7.964;2023-08-06T13:09:17;1.23;;;0.40;;
29214;SDS011;16252;49.816;7.964;2023-08-06T13:11:42;0.95;;;0.40;;
29214;SDS011;16252;49.816;7.964;2023-08-06T13:14:11;0.85;;;0.40;;
29214;SDS011;16252;49.816;7.964;2023-08-06T13:16:40;0.68;;;0.40;;
29214;SDS011;16252;49.816;7.964;2023-08-06T13:19:07;0.35;;;0.30;;
29214;SDS011;16252;49.816;7.964;2023-08-06T13:24:00;1.15;;;0.55;;
29214;SDS011;16252;49.816;7.964;2023-08-06T13:26:27;0.73;;;0.38;;
29214;SDS011;16252;49.816;7.964;2023-08-06T13:28:53;0.93;;;0.38;;
29214;SDS011;16252;49.816;7.964;2023-08-06T13:31:19;2.30;;;0.60;;
29214;SDS011;16252;49.816;7.964;2023-08-06T13:33:44;0.45;;;0.20;;
29214;SDS011;16252;49.816;7.964;2023-08-06T13:36:10;0.35;;;0.30;;
29214;SDS011;16252;49.816;7.964;2023-08-06T13:38:35;0.60;;;0.40;;
29214;SDS011;16252;49.816;7.964;2023-08-06T13:41:00;1.20;;;0.40;;
29214;SDS011;16252;49.816;7.964;2023-08-06T13:43:26;0.20;;;0.20;;
29214;SDS011;16252;49.816;7.964;2023-08-06T13:45:53;0.55;;;0.50;;
29214;SDS011;16252;49.816;7.964;2023-08-06T13:48:19;0.35;;;0.35;;
29214;SDS011;16252;49.816;7.964;2023-08-06T13:50:44;0.30;;;0.30;;
29214;SDS011;16252;49.816;7.964;2023-08-06T13:53:09;0.30;;;0.30;;
29214;SDS011;16252;49.816;7.964;2023-08-06T13:55:35;0.30;;;0.30;;
29214;SDS011;16252;49.816;7.964;2023-08-06T13:58:00;0.57;;;0.30;;
29214;SDS011;16252;49.816;7.964;2023-08-06T14:00:25;1.25;;;0.40;;
29214;SDS011;16252;49.816;7.964;2023-08-06T14:02:51;0.43;;;0.43;;
29214;SDS011;16252;49.816;7.964;2023-08-06T14:05:16;0.60;;;0.50;;
29214;SDS011;16252;49.816;7.964;2023-08-06T14:07:41;0.90;;;0.40;;
29214;SDS011;16252;49.816;7.964;2023-08-06T14:10:07;1.08;;;0.57;;
29214;SDS011;16252;49.816;7.964;2023-08-06T14:12:34;0.38;;;0.30;;
29214;SDS011;16252;49.816;7.964;2023-08-06T14:14:59;0.57;;;0.30;;
29214;SDS011;16252;49.816;7.964;2023-08-06T14:17:25;0.52;;;0.40;;
29214;SDS011;16252;49.816;7.964;2023-08-06T14:19:50;0.52;;;0.30;;
29214;SDS011;16252;49.816;7.964;2023-08-06T14:22:16;1.45;;;0.30;;
29214;SDS011;16252;49.816;7.964;2023-08-06T14:24:43;0.57;;;0.52;;
29214;SDS011;16252;49.816;7.964;2023-08-06T14:27:12;0.63;;;0.50;;
29214;SDS011;16252;49.816;7.964;2023-08-06T14:29:37;0.32;;;0.32;;
29214;SDS011;16252;49.816;7.964;2023-08-06T14:32:03;0.30;;;0.30;;
29214;SDS011;16252;49.816;7.964;2023-08-06T14:34:29;0.30;;;0.30;;
29214;SDS011;16252;49.816;7.964;2023-08-06T14:36:54;0.40;;;0.30;;
29214;SDS011;16252;49.816;7.964;2023-08-06T14:39:19;0.60;;;0.32;;
29214;SDS011;16252;49.816;7.964;2023-08-06T14:41:45;1.35;;;0.40;;
29214;SDS011;16252;49.816;7.964;2023-08-06T14:44:10;0.28;;;0.25;;
29214;SDS011;16252;49.816;7.964;2023-08-06T14:46:36;0.20;;;0.20;;
29214;SDS011;16252;49.816;7.964;2023-08-06T14:49:02;0.40;;;0.20;;
29214;SDS011;16252;49.816;7.964;2023-08-06T14:51:27;1.10;;;0.30;;
29214;SDS011;16252;49.816;7.964;2023-08-06T14:53:55;0.22;;;0.20;;
29214;SDS011;16252;49.816;7.964;2023-08-06T14:56:20;0.25;;;0.22;;
29214;SDS011;16252;49.816;7.964;2023-08-06T14:58:45;0.22;;;0.22;;